Time;durP1;ratioP1;P1;durP2;ratioP2;P2;SDS_P1;SDS_P2;PMS_P1;PMS_P2;Temp;Humidity;BMP_temperature;BMP_pressure;BME280_temperature;BME280_humidity;BME280_pressure;Samples;Min_cycle;Max_cycle;Signal;HPM_P1;HPM_P2
2023/03/21 00:00:41;;;;;;;24.55;12.48;;;;;;;10.98;71.79;99845.38;4993067;28;20112;-81
2023/03/21 00:03:08;;;;;;;20.38;11.85;;;;;;;10.99;71.71;99849.69;4992783;28;20165;-80
2023/03/21 00:05:41;;;;;;;22.70;11.32;;;;;;;10.98;71.64;99845.38;4992499;28;20054;-81
2023/03/21 00:08:08;;;;;;;23.70;11.10;;;;;;;11.00;71.53;99851.41;4992652;28;20096;-81
2023/03/21 00:10:35;;;;;;;23.80;11.95;;;;;;;11.01;71.38;99845.19;4991697;28;20062;-82
2023/03/21 00:13:14;;;;;;;24.50;11.63;;;;;;;11.02;71.51;99840.75;4992837;28;20066;-81
2023/03/21 00:15:50;;;;;;;24.33;12.20;;;;;;;11.03;71.34;99843.31;4992154;28;20096;-81
2023/03/21 00:18:30;;;;;;;20.50;11.88;;;;;;;11.05;71.34;99841.44;4992286;28;20515;-81
2023/03/21 00:21:01;;;;;;;19.75;11.48;;;;;;;11.07;71.66;99839.56;4992587;28;20050;-81
2023/03/21 00:23:48;;;;;;;18.88;11.07;;;;;;;11.09;71.27;99839.47;4992620;28;20058;-81
2023/03/21 00:26:16;;;;;;;25.70;11.27;;;;;;;11.10;71.16;99832.44;4991928;28;20060;-81
2023/03/21 00:28:42;;;;;;;26.45;12.85;;;;;;;11.12;71.16;99841.09;4991367;28;20133;-81
2023/03/21 00:31:09;;;;;;;20.70;11.48;;;;;;;11.13;71.19;99832.22;4992435;28;20093;-81
2023/03/21 00:33:38;;;;;;;21.90;11.88;;;;;;;11.15;70.99;99838.28;4992363;28;20077;-81
2023/03/21 00:36:06;;;;;;;26.75;12.95;;;;;;;11.17;71.04;99831.13;4991857;28;20158;-82
2023/03/21 00:38:33;;;;;;;20.55;11.27;;;;;;;11.19;70.97;99831.91;4990666;28;20061;-81
2023/03/21 00:41:04;;;;;;;23.25;12.32;;;;;;;11.20;70.81;99837.09;4990785;28;20149;-81
2023/03/21 00:43:50;;;;;;;27.08;12.57;;;;;;;11.24;70.59;99823.69;4992112;28;20785;-81
2023/03/21 00:46:17;;;;;;;24.40;12.68;;;;;;;11.25;70.70;99814.88;4991737;28;20065;-81
2023/03/21 00:48:44;;;;;;;17.15;11.65;;;;;;;11.27;70.63;99813.84;4991775;28;20133;-80
2023/03/21 00:51:14;;;;;;;23.23;12.95;;;;;;;11.29;70.81;99819.03;4991908;28;20061;-81
2023/03/21 00:53:41;;;;;;;26.23;12.82;;;;;;;11.32;70.44;99816.19;4992115;28;20101;-81
2023/03/21 00:56:08;;;;;;;21.73;12.63;;;;;;;11.32;70.46;99806.50;4990370;28;20129;-80
2023/03/21 00:58:35;;;;;;;26.00;13.10;;;;;;;11.35;70.35;99797.56;4991707;28;20058;-81
2023/03/21 01:01:03;;;;;;;23.13;12.52;;;;;;;11.35;70.36;99800.22;4991715;28;20094;-81
2023/03/21 01:03:29;;;;;;;19.65;12.15;;;;;;;11.38;70.23;99800.03;4991807;28;20495;-82
2023/03/21 01:06:05;;;;;;;24.48;12.30;;;;;;;11.40;70.15;99797.31;4991266;28;20712;-81
2023/03/21 01:08:35;;;;;;;23.30;12.15;;;;;;;11.40;70.05;99802.59;4991595;28;20057;-81
2023/03/21 01:11:20;;;;;;;25.63;12.73;;;;;;;11.41;70.03;99794.59;4990571;28;20101;-81
2023/03/21 01:13:46;;;;;;;23.83;12.38;;;;;;;11.44;70.14;99796.19;4990405;28;20070;-81
2023/03/21 01:16:26;;;;;;;22.38;11.98;;;;;;;11.45;69.87;99795.25;4991036;28;20054;-81
2023/03/21 01:18:52;;;;;;;23.33;12.32;;;;;;;11.46;69.82;99786.38;4991494;28;20054;-81
2023/03/21 01:21:19;;;;;;;23.13;13.00;;;;;;;11.46;69.93;99786.38;4991724;28;20058;-81
2023/03/21 01:23:46;;;;;;;23.05;11.90;;;;;;;11.47;69.96;99782.81;4991599;28;20054;-81
2023/03/21 01:26:14;;;;;;;25.88;12.82;;;;;;;11.46;69.98;99776.69;4991074;28;20062;-81
2023/03/21 01:28:42;;;;;;;24.67;12.60;;;;;;;11.47;69.72;99788.94;4990870;28;20062;-81
2023/03/21 01:31:14;;;;;;;27.15;12.38;;;;;;;11.46;69.50;99776.69;4991383;28;20141;-81
2023/03/21 01:33:40;;;;;;;27.92;13.10;;;;;;;11.47;69.68;99781.03;4991598;28;20054;-81
2023/03/21 01:36:08;;;;;;;24.38;12.52;;;;;;;11.47;69.71;99778.41;4991034;28;20062;-81
2023/03/21 01:38:40;;;;;;;19.13;11.57;;;;;;;11.46;69.72;99778.47;5028265;23;20108;-81
2023/03/21 01:41:07;;;;;;;23.73;12.73;;;;;;;11.46;69.64;99774.06;4988648;28;20064;-80
2023/03/21 01:43:44;;;;;;;22.30;12.00;;;;;;;11.49;69.69;99785.34;4990418;28;20058;-80
2023/03/21 01:46:11;;;;;;;24.77;13.23;;;;;;;11.49;69.63;99770.41;4989821;28;20057;-80
2023/03/21 01:48:41;;;;;;;25.02;12.65;;;;;;;11.47;69.60;99770.47;4990003;28;20062;-80
2023/03/21 01:51:10;;;;;;;26.55;12.63;;;;;;;11.49;69.67;99759.84;4990292;28;20058;-80
2023/03/21 01:53:38;;;;;;;23.13;13.00;;;;;;;11.50;69.56;99766.81;4990250;28;20117;-80
2023/03/21 01:56:12;;;;;;;25.40;13.05;;;;;;;11.48;69.70;99763.44;4990006;28;20063;-80
2023/03/21 01:58:41;;;;;;;24.00;12.82;;;;;;;11.50;69.55;99758.03;4989971;28;20062;-80
2023/03/21 02:01:08;;;;;;;21.48;12.88;;;;;;;11.52;69.48;99764.09;4988983;28;20473;-80
2023/03/21 02:03:37;;;;;;;23.65;12.45;;;;;;;11.52;69.58;99764.94;4990569;28;20062;-80
2023/03/21 02:06:14;;;;;;;24.00;12.80;;;;;;;11.49;69.61;99759.84;4989043;28;20058;-80
2023/03/21 02:08:40;;;;;;;23.17;12.57;;;;;;;11.54;69.71;99754.28;4988964;28;20054;-80
2023/03/21 02:11:08;;;;;;;24.85;11.65;;;;;;;11.54;69.57;99754.28;4990142;28;20612;-80
2023/03/21 02:13:35;;;;;;;23.52;13.75;;;;;;;11.54;69.71;99743.75;4990332;28;20638;-80
2023/03/21 02:16:12;;;;;;;19.50;13.13;;;;;;;11.54;69.57;99754.28;4989512;28;20054;-80
2023/03/21 02:18:38;;;;;;;23.83;13.32;;;;;;;11.56;69.34;99749.78;4988319;28;20133;-80
2023/03/21 02:21:35;;;;;;;23.92;13.82;;;;;;;11.52;69.75;99751.75;4990070;28;20090;-80
2023/03/21 02:24:25;;;;;;;24.70;13.20;;;;;;;11.51;69.63;99747.41;4990132;28;20069;-80
2023/03/21 02:27:20;;;;;;;27.33;13.43;;;;;;;11.51;69.73;99742.13;4973544;28;20109;-80
2023/03/21 02:30:23;;;;;;;19.48;12.48;;;;;;;11.52;69.79;99738.59;4988366;28;20058;-81
2023/03/21 02:33:00;;;;;;;22.48;11.98;;;;;;;11.56;69.39;99736.59;4990121;28;20100;-80
2023/03/21 02:35:50;;;;;;;24.77;12.68;;;;;;;11.54;69.66;99735.81;4988343;28;20054;-80
2023/03/21 02:38:37;;;;;;;24.27;13.57;;;;;;;11.54;69.55;99730.56;4989234;28;20460;-80
2023/03/21 02:41:08;;;;;;;27.98;15.00;;;;;;;11.54;69.65;99731.41;4990011;28;20077;-80
2023/03/21 02:43:52;;;;;;;29.60;14.18;;;;;;;11.54;69.77;99734.06;4989856;28;20050;-80
2023/03/21 02:46:33;;;;;;;24.77;13.20;;;;;;;11.52;69.79;99733.31;4988338;28;20050;-80
2023/03/21 02:49:42;;;;;;;26.35;12.98;;;;;;;11.56;69.71;99739.22;4989660;28;20069;-80
2023/03/21 02:52:15;;;;;;;22.90;12.10;;;;;;;11.54;69.63;99730.56;4954171;28;20504;-80
2023/03/21 02:54:59;;;;;;;21.00;12.82;;;;;;;11.56;69.75;99729.50;4991796;28;20054;-80
2023/03/21 02:57:26;;;;;;;25.05;13.70;;;;;;;11.56;69.65;99732.16;4991942;28;20058;-80
2023/03/21 03:00:11;;;;;;;26.95;13.63;;;;;;;11.56;69.74;99729.50;4992044;28;20054;-80
2023/03/21 03:02:42;;;;;;;22.90;12.98;;;;;;;11.57;69.59;99730.38;4993235;28;20572;-80
2023/03/21 03:05:24;;;;;;;22.90;13.05;;;;;;;11.52;69.83;99725.41;4992635;28;20090;-80
2023/03/21 03:08:24;;;;;;;24.23;14.00;;;;;;;11.52;70.18;99721.91;4989862;28;20078;-80
2023/03/21 03:11:17;;;;;;;;;;;;;;;11.54;69.83;99718.22;4986645;28;20050;-80
2023/03/21 03:13:47;;;;;;;27.35;12.50;;;;;;;11.58;69.43;99721.50;4992813;28;20443;-80
2023/03/21 03:16:37;;;;;;;22.92;12.45;;;;;;;11.53;69.78;99713.06;4992654;28;20050;-80
2023/03/21 03:19:09;;;;;;;17.67;11.73;;;;;;;11.52;69.93;99721.91;4992994;28;20062;-80
2023/03/21 03:21:42;;;;;;;26.45;14.02;;;;;;;11.49;70.10;99712.41;4992729;28;20109;-80
2023/03/21 03:24:30;;;;;;;;;;;;;;;11.51;70.27;99713.13;4993077;28;20622;-80
2023/03/21 03:27:02;;;;;;;23.35;13.48;;;;;;;11.53;69.90;99719.19;4991808;28;20543;-79
2023/03/21 03:29:33;;;;;;;25.10;13.57;;;;;;;11.50;69.91;99714.09;4992706;28;20101;-79
2023/03/21 03:32:20;;;;;;;23.92;13.77;;;;;;;11.45;70.48;99711.72;4992582;28;20124;-79
2023/03/21 03:34:50;;;;;;;25.02;13.43;;;;;;;11.49;70.13;99715.03;4991109;28;20090;-79
2023/03/21 03:37:25;;;;;;;21.45;13.73;;;;;;;11.48;70.44;99716.00;4992221;28;20484;-80
2023/03/21 03:40:26;;;;;;;24.00;14.43;;;;;;;11.45;70.93;99713.53;4991214;28;20109;-79
2023/03/21 03:42:57;;;;;;;22.27;13.85;;;;;;;11.47;70.45;99706.38;4971546;28;20497;-80
2023/03/21 03:45:34;;;;;;;23.45;14.80;;;;;;;11.44;71.12;99714.47;4992293;28;20089;-79
2023/03/21 03:48:04;;;;;;;26.02;14.60;;;;;;;11.45;70.45;99711.72;4991934;28;20108;-80
2023/03/21 03:50:43;;;;;;;21.40;14.88;;;;;;;11.39;71.06;99706.84;4992382;28;20150;-80
2023/03/21 03:53:12;;;;;;;24.05;14.50;;;;;;;11.41;70.78;99698.84;4991157;28;20691;-80
2023/03/21 03:55:44;;;;;;;24.45;15.00;;;;;;;11.38;70.59;99704.31;4992374;28;20054;-80
2023/03/21 03:58:11;;;;;;;21.38;13.32;;;;;;;11.34;70.63;99698.38;4991837;28;20062;-80
2023/03/21 04:00:50;;;;;;;21.98;13.20;;;;;;;11.31;71.13;99695.91;4992337;28;20100;-80
2023/03/21 04:03:17;;;;;;;25.48;14.05;;;;;;;11.28;70.82;99690.84;4991253;28;20101;-79
2023/03/21 04:05:46;;;;;;;20.05;13.55;;;;;;;11.26;71.23;99690.94;4991665;28;20061;-80
2023/03/21 04:08:15;;;;;;;22.40;13.23;;;;;;;11.23;71.39;99693.75;4991446;28;20097;-80
2023/03/21 04:10:42;;;;;;;27.25;14.38;;;;;;;11.20;71.45;99694.81;4992122;28;20058;-79
2023/03/21 04:13:09;;;;;;;20.75;13.98;;;;;;;11.18;71.23;99690.56;4991832;28;20496;-79
2023/03/21 04:15:36;;;;;;;23.48;14.55;;;;;;;11.15;71.71;99691.59;4990369;28;20136;-80
2023/03/21 04:18:02;;;;;;;22.52;14.25;;;;;;;11.13;71.93;99692.59;4991214;28;20058;-79
2023/03/21 04:20:29;;;;;;;24.33;14.45;;;;;;;11.11;71.89;99690.09;4991827;28;20479;-80
2023/03/21 04:23:03;;;;;;;22.88;14.88;;;;;;;11.08;72.02;99687.63;4991729;28;20151;-80
2023/03/21 04:25:33;;;;;;;24.90;14.35;;;;;;;11.06;72.58;99684.22;4991438;28;20057;-80
2023/03/21 04:28:00;;;;;;;23.25;14.15;;;;;;;11.05;72.24;99683.41;4991167;28;20065;-80
2023/03/21 04:30:26;;;;;;;21.98;14.38;;;;;;;11.04;72.38;99686.13;4991538;28;20096;-80
2023/03/21 04:32:55;;;;;;;27.65;15.00;;;;;;;11.02;72.58;99683.56;4991408;28;20054;-80
2023/03/21 04:35:23;;;;;;;22.30;14.52;;;;;;;11.04;72.74;99680.84;4991293;28;20094;-80
2023/03/21 04:37:49;;;;;;;21.52;14.30;;;;;;;11.04;72.58;99675.59;4990722;28;20070;-79
2023/03/21 04:40:18;;;;;;;20.92;13.30;;;;;;;11.03;72.76;99676.53;4989735;28;20108;-80
2023/03/21 04:42:46;;;;;;;25.70;15.43;;;;;;;11.05;72.68;99677.28;4991162;28;20424;-79
2023/03/21 04:45:14;;;;;;;23.05;14.88;;;;;;;11.05;72.74;99677.28;4990888;28;20137;-79
2023/03/21 04:47:41;;;;;;;22.23;14.05;;;;;;;11.05;72.79;99667.59;4990726;28;20113;-80
2023/03/21 04:50:09;;;;;;;23.95;14.43;;;;;;;11.06;72.84;99668.44;4989708;28;20058;-79
2023/03/21 04:52:36;;;;;;;22.90;14.48;;;;;;;11.07;72.79;99670.16;4991357;28;20062;-80
2023/03/21 04:55:03;;;;;;;25.40;14.10;;;;;;;11.08;72.99;99674.47;4990757;28;20062;-80
2023/03/21 04:57:29;;;;;;;25.55;14.10;;;;;;;11.09;72.83;99673.53;4990732;28;20046;-80
2023/03/21 04:59:56;;;;;;;22.85;14.00;;;;;;;11.08;72.86;99667.44;4989621;28;20054;-79
2023/03/21 05:02:22;;;;;;;22.48;13.00;;;;;;;11.10;72.63;99669.09;4991083;28;20053;-79
2023/03/21 05:04:49;;;;;;;24.40;14.18;;;;;;;11.10;72.69;99671.75;4990597;28;20112;-79
2023/03/21 05:07:15;;;;;;;26.38;13.95;;;;;;;11.07;72.69;99670.97;4990451;28;20066;-80
2023/03/21 05:09:41;;;;;;;24.55;14.18;;;;;;;11.08;72.81;99666.56;4990701;28;20124;-79
2023/03/21 05:12:08;;;;;;;26.15;14.57;;;;;;;11.06;72.61;99661.38;4990939;28;20054;-80
2023/03/21 05:14:34;;;;;;;25.38;14.15;;;;;;;11.05;72.91;99664.97;4990389;28;20101;-80
2023/03/21 05:17:04;;;;;;;23.85;12.95;;;;;;;11.06;72.87;99658.75;4989816;28;20509;-80
2023/03/21 05:19:34;;;;;;;23.02;13.15;;;;;;;11.05;72.90;99659.69;4990455;28;20579;-80
2023/03/21 05:22:04;;;;;;;23.35;13.35;;;;;;;11.03;72.97;99656.28;4990570;28;20128;-80
2023/03/21 05:24:32;;;;;;;22.83;13.10;;;;;;;11.06;72.82;99656.13;4990575;28;20054;-79
2023/03/21 05:27:00;;;;;;;20.55;13.23;;;;;;;11.07;72.83;99651.72;4989675;28;20057;-80
2023/03/21 05:29:30;;;;;;;21.35;12.77;;;;;;;11.06;73.06;99653.47;4989204;28;20527;-80
2023/03/21 05:31:58;;;;;;;23.55;13.27;;;;;;;11.05;73.08;99654.44;4990539;28;20062;-80
2023/03/21 05:34:25;;;;;;;25.90;13.88;;;;;;;11.06;72.96;99648.22;4990693;28;20058;-80
2023/03/21 05:36:52;;;;;;;25.70;13.85;;;;;;;11.07;73.01;99647.25;4989629;28;20820;-80
2023/03/21 05:39:19;;;;;;;22.95;14.32;;;;;;;11.07;73.09;99646.44;4988987;28;20065;-81
2023/03/21 05:41:46;;;;;;;24.00;13.38;;;;;;;11.07;72.75;99649.06;4990080;28;20077;-80
2023/03/21 05:44:12;;;;;;;23.55;13.85;;;;;;;11.06;73.09;99648.22;4990499;28;20062;-79
2023/03/21 05:46:39;;;;;;;25.05;14.73;;;;;;;11.08;73.00;99648.13;4989616;28;20046;-80
2023/03/21 05:49:05;;;;;;;24.52;15.38;;;;;;;11.07;73.14;99652.53;4990290;28;20066;-80
2023/03/21 05:51:31;;;;;;;27.73;15.38;;;;;;;11.05;73.17;99651.78;4989039;28;20058;-80
2023/03/21 05:53:58;;;;;;;23.48;14.85;;;;;;;11.05;73.00;99646.53;4990228;28;20050;-80
2023/03/21 05:56:24;;;;;;;24.30;13.55;;;;;;;11.04;73.14;99658.00;4989584;28;20738;-80
2023/03/21 05:58:51;;;;;;;24.83;14.38;;;;;;;11.02;73.07;99651.97;4990143;28;20129;-80
2023/03/21 06:01:17;;;;;;;24.90;13.93;;;;;;;11.02;73.49;99653.75;4989128;28;20086;-79
2023/03/21 06:03:44;;;;;;;27.67;14.98;;;;;;;11.00;73.37;99653.88;4990192;28;20087;-80
2023/03/21 06:06:10;;;;;;;25.15;13.88;;;;;;;11.01;73.45;99655.56;4989866;28;20058;-80
2023/03/21 06:08:37;;;;;;;25.27;14.18;;;;;;;11.01;73.46;99657.31;4989506;28;20062;-80
2023/03/21 06:11:22;;;;;;;23.67;13.40;;;;;;;10.99;74.36;99659.22;4989812;28;20066;-80
2023/03/21 06:13:48;;;;;;;23.75;12.88;;;;;;;11.03;73.60;99655.47;4989996;28;20587;-80
2023/03/21 06:16:15;;;;;;;29.48;14.43;;;;;;;11.03;73.53;99661.56;4986160;28;20073;-80
2023/03/21 06:18:41;;;;;;;25.38;14.43;;;;;;;11.06;73.65;99664.00;4988768;28;20058;-79
2023/03/21 06:21:08;;;;;;;23.77;13.73;;;;;;;11.07;73.79;99659.59;4989834;28;20121;-80
2023/03/21 06:23:35;;;;;;;22.13;14.27;;;;;;;11.06;73.73;99658.75;4989854;28;20402;-80
2023/03/21 06:26:02;;;;;;;23.95;13.63;;;;;;;11.09;73.62;99665.63;4990040;28;20066;-79
2023/03/21 06:28:29;;;;;;;28.05;12.95;;;;;;;11.11;73.61;99665.53;4993436;28;20120;-80
2023/03/21 06:30:57;;;;;;;23.67;14.38;;;;;;;11.10;73.56;99659.41;4993778;28;20374;-80
2023/03/21 06:33:24;;;;;;;23.23;14.25;;;;;;;11.14;73.72;99670.63;4992939;28;20513;-80
2023/03/21 06:35:56;;;;;;;24.45;13.25;;;;;;;11.12;73.90;99665.44;4993931;28;20342;-81
2023/03/21 06:38:24;;;;;;;22.10;12.35;;;;;;;11.15;73.72;99664.41;4992618;28;20465;-81
2023/03/21 06:40:50;;;;;;;23.95;13.63;;;;;;;11.16;73.57;99661.69;4994323;28;20069;-80
2023/03/21 06:43:17;;;;;;;22.80;13.25;;;;;;;11.20;73.79;99659.69;4994105;28;20058;-80
2023/03/21 06:45:44;;;;;;;23.33;13.82;;;;;;;11.23;73.50;99670.06;4992604;28;20073;-80
2023/03/21 06:48:11;;;;;;;24.85;13.07;;;;;;;11.24;73.58;99670.88;4992323;28;20061;-81
2023/03/21 06:50:37;;;;;;;24.92;14.43;;;;;;;11.24;73.40;99666.47;4993929;28;20062;-80
2023/03/21 06:53:04;;;;;;;20.83;13.32;;;;;;;11.26;73.35;99669.88;4994296;28;20068;-81
2023/03/21 06:55:30;;;;;;;22.25;14.30;;;;;;;11.29;73.14;99671.47;4993417;28;20413;-80
2023/03/21 06:57:58;;;;;;;25.63;13.38;;;;;;;11.29;73.22;99667.03;4993498;28;20105;-81
2023/03/21 07:00:24;;;;;;;23.38;13.52;;;;;;;11.29;73.14;99669.66;4992623;28;20531;-81
2023/03/21 07:02:52;;;;;;;28.08;14.43;;;;;;;11.31;73.12;99667.78;4993002;28;20064;-80
2023/03/21 07:05:19;;;;;;;25.00;14.25;;;;;;;11.31;73.10;99669.56;4993644;28;20065;-81
2023/03/21 07:07:45;;;;;;;28.42;14.63;;;;;;;11.32;73.13;99668.63;4993590;28;20054;-81
2023/03/21 07:10:12;;;;;;;24.83;14.27;;;;;;;11.32;73.10;99664.22;4993783;28;20058;-81
2023/03/21 07:12:38;;;;;;;28.85;15.00;;;;;;;11.31;73.00;99673.06;4994107;28;20108;-80
2023/03/21 07:15:06;;;;;;;24.83;14.48;;;;;;;11.31;73.18;99664.31;4993298;28;20070;-81
2023/03/21 07:17:32;;;;;;;25.23;15.52;;;;;;;11.31;73.10;99673.06;4992029;28;20069;-81
2023/03/21 07:19:59;;;;;;;21.80;13.70;;;;;;;11.31;73.15;99662.53;4993634;28;20069;-80
2023/03/21 07:22:25;;;;;;;25.60;15.00;;;;;;;11.31;73.31;99673.06;4993587;28;20054;-81
2023/03/21 07:24:52;;;;;;;28.52;16.02;;;;;;;11.30;73.10;99670.53;4993057;28;20061;-80
2023/03/21 07:27:30;;;;;;;27.40;15.95;;;;;;;11.28;73.36;99670.59;4993049;28;20050;-81
2023/03/21 07:29:57;;;;;;;30.30;16.58;;;;;;;11.28;73.22;99677.66;4993081;28;20063;-81
2023/03/21 07:32:28;;;;;;;26.60;16.65;;;;;;;11.27;73.46;99673.34;4993686;28;20069;-81
2023/03/21 07:34:55;;;;;;;27.20;17.15;;;;;;;11.24;73.70;99671.75;4992925;28;20058;-81
2023/03/21 07:37:22;;;;;;;26.05;17.48;;;;;;;11.23;73.71;99670.06;4992360;28;20050;-80
2023/03/21 07:39:50;;;;;;;30.52;17.23;;;;;;;11.25;73.92;99673.41;5168802;22;20033;-79
2023/03/21 07:42:17;;;;;;;25.15;16.95;;;;;;;11.26;73.96;99675.13;5032773;28;20050;-81
2023/03/21 07:44:44;;;;;;;33.70;18.25;;;;;;;11.25;74.03;99678.69;5032578;28;20088;-80
2023/03/21 07:47:11;;;;;;;28.25;18.08;;;;;;;11.27;74.03;99678.59;5031981;28;20502;-79
2023/03/21 07:49:37;;;;;;;31.05;19.15;;;;;;;11.27;73.88;99674.19;5032803;28;20057;-81
2023/03/21 07:52:05;;;;;;;25.42;18.63;;;;;;;11.28;74.08;99682.94;5032507;28;20053;-81
2023/03/21 07:54:32;;;;;;;30.23;19.65;;;;;;;11.28;74.15;99678.50;5032515;28;20103;-80
2023/03/21 07:56:58;;;;;;;34.75;21.13;;;;;;;11.28;74.42;99677.66;5031539;28;20045;-81
2023/03/21 07:59:25;;;;;;;29.98;20.23;;;;;;;11.27;74.42;99682.09;5032282;28;20057;-79
2023/03/21 08:01:51;;;;;;;31.00;21.00;;;;;;;11.27;74.57;99675.97;5032404;28;20064;-80
2023/03/21 08:04:18;;;;;;;34.22;20.48;;;;;;;11.26;74.72;99677.78;5032521;28;20453;-80
2023/03/21 08:06:45;;;;;;;35.53;22.45;;;;;;;11.27;74.96;99682.09;5013896;28;20466;-81
2023/03/21 08:09:18;;;;;;;33.10;22.13;;;;;;;11.23;75.43;99677.94;5032077;28;20544;-81
2023/03/21 08:11:44;;;;;;;32.20;21.13;;;;;;;11.25;75.12;99673.41;5031815;28;20049;-81
2023/03/21 08:14:11;;;;;;;34.08;22.33;;;;;;;11.26;75.41;99682.19;5032248;28;20053;-81
2023/03/21 08:16:37;;;;;;;32.65;22.13;;;;;;;11.25;75.23;99677.88;5013704;28;20494;-81
2023/03/21 08:19:04;;;;;;;34.33;21.55;;;;;;;11.26;75.68;99674.28;5031550;28;20062;-81
2023/03/21 08:21:31;;;;;;;30.35;20.88;;;;;;;11.26;75.51;99672.50;5031733;28;20049;-80
2023/03/21 08:23:57;;;;;;;26.98;19.55;;;;;;;11.27;75.52;99678.59;5031760;28;20046;-80
2023/03/21 08:26:25;;;;;;;35.25;21.25;;;;;;;11.29;75.90;99679.38;5031434;28;20053;-81
2023/03/21 08:28:51;;;;;;;32.70;20.00;;;;;;;11.28;75.77;99680.28;5031131;28;20425;-81
2023/03/21 08:31:20;;;;;;;30.40;19.90;;;;;;;11.28;75.74;99681.16;5031970;28;20065;-81
2023/03/21 08:33:49;;;;;;;28.45;19.85;;;;;;;11.29;75.70;99680.19;5031433;28;20111;-82
2023/03/21 08:36:16;;;;;;;28.38;19.05;;;;;;;11.29;75.92;99680.19;5031150;28;20049;-82
2023/03/21 08:38:44;;;;;;;28.95;18.67;;;;;;;11.29;75.86;99677.56;5031023;28;20049;-81
2023/03/21 08:41:11;;;;;;;29.42;18.90;;;;;;;11.29;75.99;99685.47;5031304;28;20622;-79
2023/03/21 08:43:37;;;;;;;26.70;17.83;;;;;;;11.30;76.20;99683.69;5031388;28;20057;-80
2023/03/21 08:46:04;;;;;;;29.05;18.05;;;;;;;11.29;76.31;99684.66;5031195;28;20079;-80
2023/03/21 08:48:31;;;;;;;23.70;17.10;;;;;;;11.29;76.25;99680.19;5030998;28;20067;-82
2023/03/21 08:51:00;;;;;;;26.95;17.55;;;;;;;11.30;76.66;99681.06;5030949;28;20529;-82
2023/03/21 08:53:27;;;;;;;23.05;15.60;;;;;;;11.32;76.71;99673.91;5030956;28;20204;-82
2023/03/21 08:55:53;;;;;;;25.20;17.13;;;;;;;11.33;76.91;99673.81;5030946;28;20560;-81
2023/03/21 08:58:20;;;;;;;23.05;15.05;;;;;;;11.36;76.93;99675.41;5030836;28;20103;-80
2023/03/21 09:00:47;;;;;;;27.05;15.77;;;;;;;11.38;77.04;99664.75;5030876;28;20061;-81
2023/03/21 09:03:13;;;;;;;23.45;15.77;;;;;;;11.40;77.21;99665.53;5030768;28;20057;-81
2023/03/21 09:05:40;;;;;;;28.02;16.27;;;;;;;11.43;77.28;99667.97;5030536;28;20425;-83
2023/03/21 09:08:06;;;;;;;23.77;15.00;;;;;;;11.47;77.15;99661.56;5030760;28;20057;-82
2023/03/21 09:10:33;;;;;;;22.52;15.27;;;;;;;11.49;77.12;99662.31;5030917;28;20115;-82
2023/03/21 09:12:59;;;;;;;27.10;16.88;;;;;;;11.52;77.22;99658.66;5030993;28;20119;-81
2023/03/21 09:15:28;;;;;;;25.00;15.70;;;;;;;11.53;77.10;99653.28;5030418;28;20046;-82
2023/03/21 09:17:57;;;;;;;21.42;14.95;;;;;;;11.57;77.33;99667.09;5030366;28;20057;-81
2023/03/21 09:20:29;;;;;;;26.48;15.52;;;;;;;11.61;77.33;99658.06;5030330;28;20053;-83
2023/03/21 09:22:57;;;;;;;24.70;15.73;;;;;;;11.65;76.96;99669.25;5030819;28;20103;-80
2023/03/21 09:25:23;;;;;;;25.15;15.07;;;;;;;11.68;77.18;99669.06;5030164;28;20057;-82
2023/03/21 09:27:50;;;;;;;30.20;15.95;;;;;;;11.69;76.78;99662.84;5030596;28;20139;-81
2023/03/21 09:30:20;;;;;;;29.48;16.10;;;;;;;11.70;76.90;99661.91;5030651;28;20049;-81
2023/03/21 09:32:49;;;;;;;27.57;18.03;;;;;;;11.71;76.90;99664.44;5030653;28;20413;-81
2023/03/21 09:35:17;;;;;;;27.88;16.17;;;;;;;11.72;76.89;99654.75;5030080;28;20100;-82
2023/03/21 09:37:46;;;;;;;27.55;16.95;;;;;;;11.72;76.89;99652.97;5012501;28;20498;-82
2023/03/21 09:40:22;;;;;;;21.23;15.35;;;;;;;11.71;76.92;99658.34;5012700;28;20057;-82
2023/03/21 09:43:14;;;;;;;24.00;15.27;;;;;;;11.68;76.88;99659.38;5030269;28;20132;-82
2023/03/21 09:45:57;;;;;;;24.67;15.75;;;;;;;11.70;76.99;99648.75;5029908;28;20065;-81
2023/03/21 09:48:32;;;;;;;26.45;16.42;;;;;;;11.71;76.95;99653.88;5029959;28;20049;-81
2023/03/21 09:51:04;;;;;;;27.52;16.75;;;;;;;11.73;77.09;99645.88;5012919;28;20506;-80
2023/03/21 09:53:38;;;;;;;23.55;15.77;;;;;;;11.74;77.05;99647.59;5030079;28;20053;-82
2023/03/21 09:56:12;;;;;;;29.60;16.02;;;;;;;11.76;77.08;99650.13;5012315;28;20123;-81
2023/03/21 09:58:45;;;;;;;26.80;16.17;;;;;;;11.78;77.24;99643.78;5029832;28;20057;-81
2023/03/21 10:01:40;;;;;;;26.00;15.48;;;;;;;11.78;77.60;99642.97;5030565;28;20057;-81
2023/03/21 10:04:11;;;;;;;24.02;14.88;;;;;;;11.83;77.39;99643.50;5016604;28;20057;-81
2023/03/21 10:06:41;;;;;;;25.38;15.75;;;;;;;11.85;77.36;99645.09;5033387;28;20113;-82
2023/03/21 10:09:23;;;;;;;25.67;16.23;;;;;;;11.85;77.25;99641.63;5033950;28;20094;-80
2023/03/21 10:12:06;;;;;;;25.77;15.68;;;;;;;11.89;77.11;99645.75;5016380;28;20076;-81
2023/03/21 10:14:47;;;;;;;27.05;15.77;;;;;;;11.89;77.04;99652.81;5015511;28;20053;-81
2023/03/21 10:17:24;;;;;;;22.48;14.80;;;;;;;11.90;76.91;99646.59;5014074;28;20062;-82
2023/03/21 10:20:20;;;;;;;27.90;15.20;;;;;;;11.90;76.89;99649.25;5020274;28;20068;-80
2023/03/21 10:22:49;;;;;;;25.35;15.30;;;;;;;11.93;76.70;99649.88;5043936;28;20060;-81
2023/03/21 10:25:32;;;;;;;26.13;15.82;;;;;;;11.91;76.84;99643.00;5053157;28;20063;-81
2023/03/21 10:27:59;;;;;;;24.42;14.30;;;;;;;11.93;76.91;99634.03;5053406;28;20061;-81
2023/03/21 10:30:39;;;;;;;24.75;14.73;;;;;;;11.91;76.78;99635.94;5027689;28;20486;-81
2023/03/21 10:33:10;;;;;;;24.25;14.25;;;;;;;11.91;76.90;99633.31;5034443;28;20084;-81
2023/03/21 10:35:43;;;;;;;25.60;13.95;;;;;;;11.91;76.77;99635.94;5032777;28;20073;-81
2023/03/21 10:38:16;;;;;;;27.92;14.30;;;;;;;11.90;76.94;99636.91;5033532;28;20064;-81
2023/03/21 10:40:43;;;;;;;;;;;;;;;11.91;76.84;99629.81;5033472;28;20057;-82
2023/03/21 10:43:15;;;;;;;23.55;12.57;;;;;;;11.94;76.61;99637.53;5033873;28;19979;-81
2023/03/21 10:48:16;;;;;;;22.60;13.27;;;;;;;11.90;77.24;99623.72;5011891;28;20108;-79
2023/03/21 10:50:46;;;;;;;19.73;13.02;;;;;;;11.90;77.29;99625.50;5013867;28;20054;-79
2023/03/21 10:53:26;;;;;;;23.95;13.45;;;;;;;11.88;77.31;99630.03;5014151;28;20479;-80
2023/03/21 10:55:56;;;;;;;28.23;14.10;;;;;;;11.89;77.54;99624.63;5013429;28;20085;-79
2023/03/21 10:58:32;;;;;;;22.40;13.60;;;;;;;11.90;77.61;99630.78;5013511;28;20061;-79
2023/03/21 11:01:03;;;;;;;22.38;14.10;;;;;;;11.92;77.46;99623.63;5013671;28;20552;-80
2023/03/21 11:03:35;;;;;;;24.90;13.45;;;;;;;11.92;77.69;99613.06;5014035;28;20065;-80
2023/03/21 11:06:10;;;;;;;20.95;13.00;;;;;;;11.93;77.82;99618.22;5013300;28;20185;-80
2023/03/21 11:08:46;;;;;;;23.88;14.18;;;;;;;11.94;77.82;99616.44;4996132;28;20050;-79
2023/03/21 11:11:20;;;;;;;20.35;13.50;;;;;;;11.96;77.60;99604.00;5013448;28;20049;-80
2023/03/21 11:13:55;;;;;;;23.15;15.05;;;;;;;11.96;77.59;99604.00;5013393;28;20050;-79
2023/03/21 11:16:29;;;;;;;24.45;14.43;;;;;;;11.98;77.53;99612.66;5013198;28;20084;-79
2023/03/21 11:19:00;;;;;;;22.17;13.63;;;;;;;11.99;77.65;99604.66;4995651;28;20058;-80
2023/03/21 11:21:35;;;;;;;24.88;14.25;;;;;;;11.99;77.69;99606.44;5013539;28;20081;-80
2023/03/21 11:24:03;;;;;;;23.38;15.75;;;;;;;12.02;77.76;99603.59;4995951;28;20065;-79
2023/03/21 11:26:36;;;;;;;22.67;14.32;;;;;;;12.03;77.59;99600.00;4994626;28;20057;-80
2023/03/21 11:29:39;;;;;;;25.42;14.25;;;;;;;12.02;77.92;99598.31;5012941;28;20050;-80
2023/03/21 11:32:12;;;;;;;23.80;14.93;;;;;;;12.05;77.97;99584.97;5010088;28;20478;-80
2023/03/21 11:34:52;;;;;;;20.52;13.70;;;;;;;12.09;78.01;99602.28;5013067;28;20046;-79
2023/03/21 11:37:36;;;;;;;20.55;14.35;;;;;;;12.12;77.87;99591.50;5012872;28;20498;-79